Time;durP1;ratioP1;P1;durP2;ratioP2;P2;SDS_P1;SDS_P2;PMS_P1;PMS_P2;Temp;Humidity;BMP_temperature;BMP_pressure;BME280_temperature;BME280_humidity;BME280_pressure;Samples;Min_cycle;Max_cycle;Signal;HPM_P1;HPM_P2
2023/10/31 00:01:32;;;;;;;9.15;1.77;;;18.90;96.70;;;;;;5045323;28;20045;-78
2023/10/31 00:04:01;;;;;;;8.77;1.75;;;19.00;96.70;;;;;;5046380;28;20051;-77
2023/10/31 00:06:29;;;;;;;8.43;2.17;;;19.00;96.70;;;;;;5055970;28;20865;-77
2023/10/31 00:08:57;;;;;;;7.30;1.42;;;19.00;96.70;;;;;;5051860;28;20136;-78
2023/10/31 00:11:25;;;;;;;9.43;1.58;;;19.00;96.70;;;;;;5044992;28;20390;-79
2023/10/31 00:13:53;;;;;;;12.68;2.30;;;19.00;96.70;;;;;;5044978;28;20037;-77
2023/10/31 00:16:22;;;;;;;7.78;1.90;;;19.00;96.70;;;;;;5046320;28;20056;-77
2023/10/31 00:18:51;;;;;;;9.48;2.10;;;19.00;96.70;;;;;;5058748;28;20064;-77
2023/10/31 00:21:20;;;;;;;7.63;1.45;;;19.00;96.70;;;;;;5045047;28;20076;-79
2023/10/31 00:23:49;;;;;;;7.32;1.65;;;19.00;96.70;;;;;;5025258;28;20033;-77
2023/10/31 00:26:17;;;;;;;9.57;1.67;;;19.00;96.70;;;;;;5044959;28;20063;-77
2023/10/31 00:28:51;;;;;;;7.88;1.60;;;19.00;96.70;;;;;;5028908;28;20510;-78
2023/10/31 00:31:20;;;;;;;7.93;1.55;;;19.00;96.70;;;;;;5033727;28;20044;-78
2023/10/31 00:33:48;;;;;;;9.07;1.75;;;18.90;96.70;;;;;;5053473;28;20041;-78
2023/10/31 00:36:18;;;;;;;10.73;2.08;;;19.00;96.70;;;;;;5055593;28;20059;-77
2023/10/31 00:38:46;;;;;;;7.38;1.80;;;19.10;96.70;;;;;;5043603;28;20091;-78
2023/10/31 00:41:14;;;;;;;6.38;1.35;;;19.20;96.70;;;;;;5045159;28;20063;-79
2023/10/31 00:43:42;;;;;;;9.32;2.15;;;19.30;96.70;;;;;;5045719;28;20044;-77
2023/10/31 00:46:11;;;;;;;6.10;1.50;;;19.20;96.70;;;;;;5045128;28;20140;-77
2023/10/31 00:48:39;;;;;;;8.82;1.73;;;19.10;96.70;;;;;;5043574;28;20091;-77
2023/10/31 00:51:07;;;;;;;6.95;1.58;;;19.10;96.70;;;;;;5044665;28;20106;-77
2023/10/31 00:53:37;;;;;;;8.82;2.20;;;19.10;96.70;;;;;;5028084;28;20098;-77
2023/10/31 00:56:06;;;;;;;10.68;2.08;;;19.00;96.70;;;;;;5058864;28;20056;-78
2023/10/31 00:58:34;;;;;;;8.90;1.90;;;19.00;96.70;;;;;;5040282;28;20090;-79
2023/10/31 01:01:02;;;;;;;10.85;2.10;;;19.00;96.70;;;;;;5055469;28;20056;-77
2023/10/31 01:03:30;;;;;;;7.63;1.80;;;18.90;96.70;;;;;;5053631;28;20047;-77
2023/10/31 01:05:59;;;;;;;10.20;2.50;;;18.90;96.70;;;;;;5051502;28;20055;-77
2023/10/31 01:08:27;;;;;;;11.90;1.70;;;19.00;96.70;;;;;;5056128;28;20041;-77
2023/10/31 01:10:57;;;;;;;14.00;2.22;;;19.00;96.70;;;;;;5051962;28;20518;-76
2023/10/31 01:13:25;;;;;;;11.95;2.13;;;18.90;96.70;;;;;;5062773;28;20450;-77
2023/10/31 01:15:54;;;;;;;10.02;2.00;;;18.90;96.70;;;;;;5051082;28;20126;-78
2023/10/31 01:18:22;;;;;;;7.45;1.90;;;18.90;96.70;;;;;;5061935;28;20046;-78
2023/10/31 01:20:51;;;;;;;9.90;2.47;;;18.90;96.70;;;;;;5056613;28;20044;-78
2023/10/31 01:23:19;;;;;;;10.10;1.92;;;18.90;96.70;;;;;;5063030;28;20048;-77
2023/10/31 01:25:47;;;;;;;11.20;2.47;;;19.00;96.70;;;;;;5036189;28;20739;-79
2023/10/31 01:28:17;;;;;;;8.65;2.20;;;19.10;96.70;;;;;;5051559;28;20401;-77
2023/10/31 01:30:46;;;;;;;17.88;3.08;;;19.20;96.70;;;;;;5043861;28;20045;-78
2023/10/31 01:33:14;;;;;;;14.82;2.13;;;19.20;96.70;;;;;;5045455;28;20419;-77
2023/10/31 01:35:42;;;;;;;10.15;1.88;;;19.20;96.70;;;;;;5043953;28;20079;-77
2023/10/31 01:38:10;;;;;;;9.77;2.20;;;19.20;96.70;;;;;;5036092;28;20954;-77
2023/10/31 01:40:38;;;;;;;7.80;1.75;;;19.20;96.70;;;;;;5051113;28;20139;-77
2023/10/31 01:43:07;;;;;;;13.35;1.98;;;19.20;96.70;;;;;;5048493;28;20469;-77
2023/10/31 01:45:37;;;;;;;9.23;1.70;;;19.20;96.70;;;;;;5039211;28;20417;-78
2023/10/31 01:48:05;;;;;;;13.60;2.60;;;19.30;96.70;;;;;;5044461;28;20041;-78
2023/10/31 01:50:33;;;;;;;6.13;1.63;;;19.30;96.70;;;;;;5044334;28;20041;-77
2023/10/31 01:53:02;;;;;;;14.30;2.38;;;19.30;96.70;;;;;;5035259;28;20056;-77
2023/10/31 01:55:31;;;;;;;8.27;1.30;;;19.20;96.70;;;;;;5057392;28;20513;-78
2023/10/31 01:58:00;;;;;;;11.13;2.58;;;19.20;96.70;;;;;;5049275;28;20110;-77
2023/10/31 02:00:46;;;;;;;10.15;2.08;;;19.20;96.70;;;;;;5059858;28;20052;-77
2023/10/31 02:03:15;;;;;;;14.23;2.75;;;19.20;96.70;;;;;;5053957;28;20106;-76
2023/10/31 02:05:43;;;;;;;8.95;2.17;;;19.10;96.70;;;;;;5046212;28;20421;-77
2023/10/31 02:08:11;;;;;;;9.05;1.98;;;19.10;96.70;;;;;;5052141;28;20059;-78
2023/10/31 02:10:40;;;;;;;13.85;2.13;;;19.10;96.70;;;;;;5043114;28;20135;-77
2023/10/31 02:13:11;;;;;;;9.38;2.08;;;19.00;96.70;;;;;;5028406;28;20126;-78
2023/10/31 02:15:40;;;;;;;10.25;2.15;;;18.90;96.70;;;;;;5054995;28;20072;-77
2023/10/31 02:18:10;;;;;;;11.05;2.15;;;18.80;96.70;;;;;;5062699;28;20118;-77
2023/10/31 02:20:38;;;;;;;12.40;1.65;;;18.70;96.70;;;;;;5032190;28;20056;-78
2023/10/31 02:23:08;;;;;;;6.70;1.45;;;18.70;96.70;;;;;;5042335;28;20037;-76
2023/10/31 02:25:36;;;;;;;9.13;1.20;;;18.60;96.70;;;;;;5050727;28;20061;-77
2023/10/31 02:28:05;;;;;;;6.20;1.42;;;18.50;96.70;;;;;;5042987;28;20041;-78
2023/10/31 02:30:35;;;;;;;7.35;1.48;;;18.50;96.70;;;;;;5042741;28;20075;-77
2023/10/31 02:33:03;;;;;;;7.25;1.73;;;18.40;96.70;;;;;;5026449;28;20182;-77
2023/10/31 02:35:32;;;;;;;10.30;1.48;;;18.30;96.70;;;;;;5025159;28;20053;-77
2023/10/31 02:38:00;;;;;;;7.72;1.45;;;18.30;96.70;;;;;;5037750;28;20076;-77
2023/10/31 02:40:30;;;;;;;9.73;1.90;;;18.30;96.70;;;;;;5051293;28;20771;-76
2023/10/31 02:42:58;;;;;;;7.13;1.30;;;18.20;96.70;;;;;;5045181;28;20138;-77
2023/10/31 02:45:27;;;;;;;5.60;1.30;;;18.20;96.70;;;;;;5024703;28;20128;-77
2023/10/31 02:47:55;;;;;;;10.02;1.88;;;18.10;96.70;;;;;;5042551;28;20052;-77
2023/10/31 02:50:24;;;;;;;5.80;1.23;;;18.10;96.70;;;;;;5026545;28;20579;-78
2023/10/31 02:52:52;;;;;;;5.90;0.80;;;18.00;96.70;;;;;;5051856;28;20049;-77
2023/10/31 02:55:20;;;;;;;5.15;1.02;;;18.00;96.70;;;;;;5047882;28;20041;-77
2023/10/31 02:57:50;;;;;;;7.18;0.88;;;18.00;96.70;;;;;;5040841;28;20040;-77
2023/10/31 03:00:19;;;;;;;6.47;1.20;;;18.00;96.70;;;;;;5041927;28;20048;-77
2023/10/31 03:02:47;;;;;;;5.45;1.25;;;18.00;96.70;;;;;;5044561;28;20398;-77
2023/10/31 03:05:16;;;;;;;6.28;0.95;;;18.00;96.70;;;;;;5048596;28;20118;-76
2023/10/31 03:07:44;;;;;;;9.27;1.38;;;18.00;96.70;;;;;;5049652;28;20754;-78
2023/10/31 03:10:13;;;;;;;8.48;1.00;;;18.00;96.70;;;;;;5044605;28;20068;-77
2023/10/31 03:12:41;;;;;;;4.72;0.85;;;18.00;96.70;;;;;;5054842;28;20041;-78
2023/10/31 03:15:11;;;;;;;4.95;1.42;;;18.00;96.70;;;;;;5058258;28;20494;-77
2023/10/31 03:17:40;;;;;;;13.80;1.80;;;18.00;96.70;;;;;;5041866;28;20059;-78
2023/10/31 03:20:09;;;;;;;10.43;1.20;;;18.00;96.70;;;;;;5044197;28;20041;-77
2023/10/31 03:22:37;;;;;;;4.88;1.20;;;18.00;96.70;;;;;;5042033;28;20056;-77
2023/10/31 03:25:06;;;;;;;7.47;1.08;;;18.10;96.70;;;;;;5046537;28;20045;-77
2023/10/31 03:27:35;;;;;;;6.68;1.73;;;18.10;96.70;;;;;;5052433;28;20110;-77
2023/10/31 03:30:04;;;;;;;8.77;1.50;;;18.10;96.70;;;;;;5050408;28;20048;-78
2023/10/31 03:32:35;;;;;;;6.65;1.35;;;18.10;96.70;;;;;;5042572;28;20175;-77
2023/10/31 03:35:03;;;;;;;7.07;1.73;;;18.20;96.70;;;;;;5042424;28;20077;-77
2023/10/31 03:37:32;;;;;;;12.10;2.00;;;18.30;96.70;;;;;;5022365;28;20479;-78
2023/10/31 03:40:00;;;;;;;7.28;1.38;;;18.30;96.70;;;;;;5051116;28;20047;-77
2023/10/31 03:42:28;;;;;;;8.60;1.73;;;18.40;96.70;;;;;;5049952;28;20079;-77
2023/10/31 03:44:57;;;;;;;5.85;1.17;;;18.40;96.70;;;;;;5057376;28;20040;-77
2023/10/31 03:47:25;;;;;;;6.75;1.60;;;18.40;96.70;;;;;;5055574;28;20041;-77
2023/10/31 03:49:55;;;;;;;4.85;1.10;;;18.40;96.70;;;;;;5050118;28;20037;-77
2023/10/31 03:52:23;;;;;;;7.55;1.08;;;18.70;96.70;;;;;;5047347;28;20461;-77
2023/10/31 03:54:51;;;;;;;8.07;1.30;;;18.70;96.70;;;;;;5053207;28;20041;-79
2023/10/31 03:57:19;;;;;;;6.55;0.90;;;18.80;96.70;;;;;;5066725;28;20466;-77
2023/10/31 03:59:47;;;;;;;5.50;0.85;;;18.80;96.70;;;;;;5061998;28;20045;-78
2023/10/31 04:02:15;;;;;;;6.93;1.00;;;18.80;96.70;;;;;;5025610;28;20556;-77
2023/10/31 04:04:43;;;;;;;6.60;1.20;;;18.70;96.70;;;;;;5053750;28;20064;-78
2023/10/31 04:07:13;;;;;;;6.43;0.90;;;18.70;96.70;;;;;;5044199;28;20049;-77
2023/10/31 04:09:41;;;;;;;6.65;1.35;;;18.60;96.70;;;;;;5041431;28;20044;-77
2023/10/31 04:12:09;;;;;;;10.27;1.45;;;18.50;96.70;;;;;;5057542;28;20506;-77
2023/10/31 04:14:38;;;;;;;9.05;1.38;;;18.40;96.70;;;;;;5059046;28;20041;-77
2023/10/31 04:17:15;;;;;;;10.55;1.05;;;18.30;96.70;;;;;;5056595;28;20045;-77
2023/10/31 04:19:44;;;;;;;5.63;1.00;;;18.20;96.70;;;;;;5048632;28;20044;-77
2023/10/31 04:22:14;;;;;;;10.32;1.25;;;18.20;96.70;;;;;;5055605;28;20045;-77
2023/10/31 04:24:41;;;;;;;8.55;1.17;;;18.20;96.70;;;;;;5040125;28;20102;-76
2023/10/31 04:27:09;;;;;;;8.63;1.58;;;18.20;96.70;;;;;;5039979;28;20040;-77
2023/10/31 04:29:37;;;;;;;7.70;1.92;;;18.20;96.70;;;;;;5036111;28;20458;-77
2023/10/31 04:32:05;;;;;;;8.60;1.08;;;18.30;96.70;;;;;;5056628;28;20041;-77
2023/10/31 04:34:33;;;;;;;6.40;1.15;;;18.30;96.70;;;;;;5036234;28;20049;-77
2023/10/31 04:37:02;;;;;;;6.53;1.40;;;18.30;96.70;;;;;;5046090;28;20607;-76
2023/10/31 04:39:31;;;;;;;5.65;1.10;;;18.30;96.70;;;;;;5046982;28;20064;-76
2023/10/31 04:41:59;;;;;;;7.63;0.98;;;18.30;96.70;;;;;;5052776;28;20120;-77
2023/10/31 04:44:27;;;;;;;8.73;1.20;;;18.20;96.70;;;;;;5047519;28;20115;-77
2023/10/31 04:46:55;;;;;;;10.55;1.50;;;18.20;96.70;;;;;;5045619;28;20134;-76
2023/10/31 04:49:23;;;;;;;5.25;1.40;;;18.20;96.70;;;;;;5043980;28;20040;-77
2023/10/31 04:51:50;;;;;;;8.43;1.90;;;18.20;96.70;;;;;;5043373;28;20103;-77
2023/10/31 04:54:18;;;;;;;8.98;1.70;;;18.30;96.70;;;;;;5046268;28;20048;-77
2023/10/31 04:56:49;;;;;;;9.25;2.38;;;18.30;96.70;;;;;;5049160;28;20040;-77
2023/10/31 04:59:17;;;;;;;8.85;1.40;;;18.40;96.70;;;;;;5055671;28;20760;-77
2023/10/31 05:01:49;;;;;;;13.45;1.90;;;18.50;96.70;;;;;;5058007;28;20678;-77
2023/10/31 05:04:18;;;;;;;12.18;2.22;;;18.40;96.70;;;;;;5052011;28;20053;-77
2023/10/31 05:06:46;;;;;;;8.70;1.88;;;18.40;96.70;;;;;;5028033;28;20161;-77
2023/10/31 05:09:14;;;;;;;7.20;1.50;;;18.40;96.70;;;;;;5043556;28;20253;-77
2023/10/31 05:11:43;;;;;;;6.55;1.13;;;18.30;96.70;;;;;;5060897;28;20550;-78
2023/10/31 05:14:12;;;;;;;11.70;2.42;;;18.20;96.70;;;;;;5045972;28;20048;-77
2023/10/31 05:16:42;;;;;;;5.65;1.00;;;18.20;96.70;;;;;;5045005;28;20083;-77
2023/10/31 05:19:10;;;;;;;8.73;1.60;;;18.30;96.70;;;;;;5045296;28;20060;-76
2023/10/31 05:21:38;;;;;;;5.72;1.30;;;18.20;96.70;;;;;;5044605;28;20065;-77
2023/10/31 05:24:07;;;;;;;6.40;1.15;;;18.30;96.70;;;;;;5044253;28;20514;-77
2023/10/31 05:26:34;;;;;;;10.13;2.30;;;18.30;96.70;;;;;;5047513;28;20055;-77
2023/10/31 05:29:02;;;;;;;6.75;1.13;;;18.20;96.70;;;;;;5054585;28;20040;-78
2023/10/31 05:31:31;;;;;;;12.75;1.67;;;18.20;96.70;;;;;;5056404;28;20049;-78
2023/10/31 05:33:59;;;;;;;6.40;1.55;;;18.10;96.70;;;;;;5051801;28;20446;-77
2023/10/31 05:36:27;;;;;;;9.07;1.10;;;18.00;96.70;;;;;;5044224;28;20414;-77
2023/10/31 05:38:55;;;;;;;12.68;1.67;;;18.00;96.70;;;;;;5043602;28;20060;-77
2023/10/31 05:41:23;;;;;;;5.63;1.48;;;18.00;96.70;;;;;;5045208;28;20041;-77
2023/10/31 05:43:50;;;;;;;8.57;1.48;;;18.00;96.70;;;;;;5050179;28;20091;-77
2023/10/31 05:46:20;;;;;;;8.60;1.63;;;17.90;96.70;;;;;;5047897;28;20132;-78
2023/10/31 05:48:50;;;;;;;7.85;1.50;;;17.90;96.70;;;;;;5027071;28;20045;-77
2023/10/31 05:51:19;;;;;;;10.23;1.83;;;17.90;96.70;;;;;;5053362;28;20040;-78
2023/10/31 05:53:53;;;;;;;6.45;1.42;;;17.80;96.70;;;;;;5042016;28;20068;-76
2023/10/31 05:56:21;;;;;;;8.05;1.45;;;17.70;96.70;;;;;;5056060;28;20064;-77
2023/10/31 05:58:49;;;;;;;5.45;1.25;;;17.70;96.70;;;;;;5051879;28;20047;-78
2023/10/31 06:01:17;;;;;;;11.70;2.17;;;17.70;96.70;;;;;;5045345;28;20049;-77
2023/10/31 06:03:45;;;;;;;7.22;1.48;;;17.70;96.70;;;;;;5044608;28;20491;-77
2023/10/31 06:06:14;;;;;;;5.50;1.00;;;17.70;96.70;;;;;;5052518;28;20048;-77
2023/10/31 06:08:42;;;;;;;12.80;2.42;;;17.60;96.70;;;;;;5049608;28;20048;-76
2023/10/31 06:11:12;;;;;;;6.57;2.10;;;17.60;96.70;;;;;;5053576;28;20131;-77
2023/10/31 06:13:40;;;;;;;6.25;1.33;;;17.60;96.70;;;;;;5049110;28;20090;-76
2023/10/31 06:16:08;;;;;;;9.30;1.30;;;17.60;96.70;;;;;;5043141;28;20057;-77
2023/10/31 06:18:39;;;;;;;9.88;1.30;;;17.50;96.70;;;;;;5044349;28;20128;-76
2023/10/31 06:21:10;;;;;;;7.93;1.42;;;17.60;96.70;;;;;;5061450;28;20501;-77
2023/10/31 06:23:40;;;;;;;11.52;1.70;;;17.70;96.70;;;;;;5047480;28;20048;-78
2023/10/31 06:26:08;;;;;;;9.27;1.90;;;17.80;96.70;;;;;;5051802;28;20075;-77
2023/10/31 06:28:37;;;;;;;10.75;1.88;;;17.80;96.70;;;;;;5045815;28;20040;-78
2023/10/31 06:31:12;;;;;;;6.35;1.75;;;17.80;96.70;;;;;;5049152;28;20070;-78
2023/10/31 06:33:41;;;;;;;13.43;1.90;;;17.80;96.70;;;;;;5064312;28;20045;-77
2023/10/31 06:36:09;;;;;;;13.35;3.13;;;17.90;96.70;;;;;;5054938;28;20068;-77
2023/10/31 06:38:37;;;;;;;6.95;1.58;;;17.90;96.70;;;;;;5054157;28;20032;-78
2023/10/31 06:41:06;;;;;;;8.00;1.77;;;17.90;96.70;;;;;;5045712;28;20098;-77
2023/10/31 06:43:34;;;;;;;10.80;1.95;;;17.90;96.70;;;;;;5048863;28;20498;-77
2023/10/31 06:46:04;;;;;;;8.25;1.52;;;18.00;96.70;;;;;;5042461;28;20049;-78
2023/10/31 06:48:32;;;;;;;11.35;1.48;;;18.10;96.70;;;;;;5042512;28;20036;-77
2023/10/31 06:51:00;;;;;;;5.90;1.38;;;18.20;96.70;;;;;;5053652;28;20049;-77
2023/10/31 06:53:28;;;;;;;8.75;1.85;;;18.20;96.70;;;;;;5056319;28;20037;-77
2023/10/31 06:55:56;;;;;;;7.97;2.22;;;18.20;96.70;;;;;;5027922;28;20064;-77
2023/10/31 06:58:25;;;;;;;8.27;1.48;;;18.30;96.70;;;;;;5058937;28;20045;-78
2023/10/31 07:00:58;;;;;;;9.55;1.70;;;18.30;96.70;;;;;;5055808;28;20047;-77
2023/10/31 07:03:26;;;;;;;8.52;1.60;;;18.40;96.70;;;;;;5062445;28;20051;-77
2023/10/31 07:05:56;;;;;;;12.85;1.58;;;18.50;96.70;;;;;;5056248;28;20055;-77
2023/10/31 07:08:40;;;;;;;9.95;1.52;;;18.50;96.70;;;;;;5045177;28;20048;-76
2023/10/31 07:11:15;;;;;;;8.68;1.20;;;18.50;96.70;;;;;;5048917;28;20094;-78
2023/10/31 07:13:45;;;;;;;10.88;1.73;;;18.60;96.70;;;;;;5043887;28;20124;-77
2023/10/31 07:16:13;;;;;;;11.50;1.85;;;18.70;96.70;;;;;;5050737;28;20075;-77
2023/10/31 07:18:41;;;;;;;8.70;1.52;;;18.70;96.70;;;;;;5062121;28;20044;-78
2023/10/31 07:21:09;;;;;;;9.60;1.50;;;18.80;96.70;;;;;;5053822;28;20076;-78
2023/10/31 07:23:36;;;;;;;6.40;1.50;;;18.80;96.70;;;;;;5046539;28;20107;-84
2023/10/31 07:26:05;;;;;;;10.63;2.03;;;18.90;96.70;;;;;;5045706;28;20401;-85
2023/10/31 07:28:33;;;;;;;10.55;2.42;;;18.90;96.70;;;;;;5033625;28;20045;-85
2023/10/31 07:31:03;;;;;;;13.20;2.42;;;18.90;96.70;;;;;;5060337;28;20044;-85
2023/10/31 07:33:33;;;;;;;12.20;2.40;;;18.90;96.70;;;;;;5050627;28;20047;-76
2023/10/31 07:36:01;;;;;;;18.58;2.60;;;18.90;96.70;;;;;;5054297;28;20441;-76
2023/10/31 07:38:29;;;;;;;12.88;1.92;;;18.90;96.70;;;;;;5065583;28;20422;-77
2023/10/31 07:40:57;;;;;;;9.73;2.50;;;18.90;96.70;;;;;;5047054;28;20094;-76
2023/10/31 07:43:25;;;;;;;14.18;3.13;;;18.80;96.70;;;;;;5047007;28;20407;-78
2023/10/31 07:45:53;;;;;;;20.08;3.42;;;18.60;96.70;;;;;;5050186;28;20045;-76
2023/10/31 07:48:22;;;;;;;13.32;3.10;;;18.30;96.70;;;;;;5047295;28;20080;-77
2023/10/31 07:50:50;;;;;;;14.60;2.97;;;18.20;96.70;;;;;;5037331;28;20040;-77
2023/10/31 07:53:18;;;;;;;15.88;3.17;;;18.10;96.70;;;;;;5056812;28;20590;-77
2023/10/31 07:55:46;;;;;;;15.55;3.10;;;18.00;96.70;;;;;;5063565;28;20044;-77
2023/10/31 07:58:14;;;;;;;12.68;2.47;;;17.90;96.70;;;;;;5049146;28;20473;-77
2023/10/31 08:00:42;;;;;;;15.75;3.10;;;17.90;96.70;;;;;;5052482;28;20068;-77
2023/10/31 08:03:10;;;;;;;17.13;3.28;;;17.90;96.70;;;;;;5044073;28;20061;-78
2023/10/31 08:05:41;;;;;;;16.38;3.05;;;18.00;96.70;;;;;;5047317;28;20041;-78
2023/10/31 08:08:09;;;;;;;14.48;3.33;;;18.10;96.70;;;;;;5044946;28;20063;-77
2023/10/31 08:10:37;;;;;;;15.55;4.05;;;18.20;96.70;;;;;;5053377;28;20089;-77
2023/10/31 08:13:06;;;;;;;11.95;2.67;;;18.30;96.70;;;;;;5050858;28;20494;-78
2023/10/31 08:15:34;;;;;;;16.73;3.78;;;18.40;96.70;;;;;;5034823;28;20060;-77
2023/10/31 08:18:03;;;;;;;14.52;3.10;;;18.50;96.70;;;;;;5038753;28;20078;-77
2023/10/31 08:20:33;;;;;;;17.33;2.72;;;18.50;96.70;;;;;;5053356;28;20048;-78
2023/10/31 08:23:03;;;;;;;15.32;2.97;;;18.50;96.70;;;;;;5044925;28;20498;-77
2023/10/31 08:25:32;;;;;;;12.55;2.40;;;18.60;96.70;;;;;;5045347;28;20048;-78
2023/10/31 08:28:00;;;;;;;18.15;3.50;;;18.70;96.70;;;;;;5045480;28;20060;-76
2023/10/31 08:30:28;;;;;;;13.70;2.72;;;18.90;96.70;;;;;;5044934;28;20103;-77
2023/10/31 08:32:57;;;;;;;15.00;2.83;;;19.10;96.70;;;;;;5047163;28;20091;-78
2023/10/31 08:35:25;;;;;;;18.15;3.13;;;19.20;96.70;;;;;;5046372;28;20083;-79
2023/10/31 08:37:54;;;;;;;12.73;2.53;;;19.30;96.70;;;;;;5046197;28;20158;-79
2023/10/31 08:40:24;;;;;;;12.45;2.75;;;19.40;96.70;;;;;;5058803;28;20072;-78
2023/10/31 08:42:53;;;;;;;11.85;2.45;;;19.40;96.70;;;;;;5061423;28;20132;-78
2023/10/31 08:45:21;;;;;;;16.50;3.08;;;19.40;96.70;;;;;;5051301;28;20049;-77
2023/10/31 08:47:52;;;;;;;13.65;2.22;;;19.40;96.70;;;;;;5052890;28;20574;-79
2023/10/31 08:50:20;;;;;;;18.20;3.25;;;19.50;96.70;;;;;;5030225;28;20487;-79
2023/10/31 08:52:49;;;;;;;11.35;3.10;;;19.50;96.70;;;;;;5044554;28;20053;-79
2023/10/31 08:55:17;;;;;;;17.08;2.92;;;19.60;96.70;;;;;;5041479;28;20064;-80
2023/10/31 08:57:47;;;;;;;15.13;3.45;;;19.60;96.70;;;;;;5045813;28;20037;-77
2023/10/31 09:00:16;;;;;;;11.02;2.25;;;19.60;96.70;;;;;;5046794;28;20458;-82
2023/10/31 09:02:45;;;;;;;10.32;2.47;;;19.60;96.70;;;;;;5045841;28;20072;-83
2023/10/31 09:05:13;;;;;;;15.50;2.92;;;19.70;96.70;;;;;;5047720;28;20045;-82
2023/10/31 09:07:42;;;;;;;14.80;2.63;;;19.70;96.70;;;;;;5057308;28;20519;-83
2023/10/31 09:10:11;;;;;;;14.30;3.10;;;19.70;96.70;;;;;;5048937;28;20044;-80
2023/10/31 09:12:39;;;;;;;13.43;3.13;;;19.70;96.70;;;;;;5047197;28;20048;-78
2023/10/31 09:15:10;;;;;;;13.93;3.20;;;19.60;96.70;;;;;;5046596;28;20082;-79
2023/10/31 09:17:38;;;;;;;17.70;2.78;;;19.70;96.70;;;;;;5048246;28;20540;-80
2023/10/31 09:20:08;;;;;;;17.90;3.05;;;19.80;96.70;;;;;;5045954;28;20045;-78
2023/10/31 09:22:37;;;;;;;13.88;2.60;;;19.80;96.70;;;;;;5028131;28;20056;-80
2023/10/31 09:25:05;;;;;;;10.95;3.00;;;19.80;96.70;;;;;;5046965;28;20044;-80
2023/10/31 09:27:34;;;;;;;12.82;2.65;;;19.90;96.70;;;;;;5054057;28;20533;-81
2023/10/31 09:30:03;;;;;;;14.93;2.63;;;20.00;96.70;;;;;;5054027;28;20445;-79
2023/10/31 09:32:33;;;;;;;14.30;3.15;;;20.00;96.70;;;;;;5045087;28;20128;-80
2023/10/31 09:35:02;;;;;;;14.88;2.70;;;20.00;96.70;;;;;;5028232;28;20049;-79
2023/10/31 09:37:31;;;;;;;15.95;3.72;;;20.10;96.70;;;;;;5046923;28;20087;-84
2023/10/31 09:39:59;;;;;;;17.05;2.92;;;20.10;96.70;;;;;;5043530;28;20118;-78
2023/10/31 09:42:27;;;;;;;15.02;2.67;;;20.10;96.70;;;;;;5041325;28;20037;-76
2023/10/31 09:44:56;;;;;;;14.52;2.78;;;20.20;96.70;;;;;;5053183;28;20616;-78
2023/10/31 09:47:25;;;;;;;11.70;2.55;;;20.30;96.70;;;;;;5047953;28;20600;-77
2023/10/31 09:49:55;;;;;;;14.35;2.53;;;20.20;96.70;;;;;;5042835;28;20133;-77
2023/10/31 09:52:25;;;;;;;11.57;2.22;;;20.20;96.70;;;;;;5053027;28;20044;-77
2023/10/31 09:54:57;;;;;;;16.70;3.75;;;20.20;96.70;;;;;;5052580;28;20534;-76
2023/10/31 09:57:26;;;;;;;15.23;2.72;;;20.10;96.70;;;;;;5026721;28;20134;-77
2023/10/31 09:59:54;;;;;;;9.88;2.45;;;20.00;96.70;;;;;;5050178;28;20136;-76
2023/10/31 10:02:23;;;;;;;11.27;2.47;;;20.00;96.70;;;;;;5049149;28;20545;-75
2023/10/31 10:04:52;;;;;;;15.45;2.90;;;19.90;96.70;;;;;;5050506;28;20037;-76
2023/10/31 10:07:22;;;;;;;10.90;2.00;;;19.80;96.70;;;;;;5043005;28;20052;-76
2023/10/31 10:09:50;;;;;;;11.63;2.20;;;19.90;96.70;;;;;;5045003;28;20048;-76
2023/10/31 10:12:19;;;;;;;9.93;2.30;;;20.00;96.70;;;;;;5044028;28;20040;-76
2023/10/31 10:14:48;;;;;;;12.93;2.05;;;20.10;96.70;;;;;;5045528;28;20041;-76
2023/10/31 10:17:18;;;;;;;10.15;2.00;;;20.10;96.70;;;;;;5053930;28;20052;-80
2023/10/31 10:19:46;;;;;;;11.63;2.00;;;20.10;96.70;;;;;;5055048;28;20119;-79
2023/10/31 10:22:15;;;;;;;11.00;2.20;;;20.00;96.70;;;;;;5046072;28;20658;-80
2023/10/31 10:24:45;;;;;;;8.85;2.15;;;20.10;96.70;;;;;;5046086;28;20048;-80
2023/10/31 10:27:13;;;;;;;10.40;2.22;;;20.30;96.70;;;;;;5044384;28;20044;-75
2023/10/31 10:29:43;;;;;;;8.60;1.77;;;20.40;96.70;;;;;;5046579;28;20398;-75
2023/10/31 10:32:12;;;;;;;7.93;1.75;;;20.50;96.70;;;;;;5056651;28;20075;-75
2023/10/31 10:34:43;;;;;;;14.10;2.75;;;20.50;96.70;;;;;;5052375;28;20103;-75
2023/10/31 10:37:12;;;;;;;10.13;1.75;;;20.30;96.70;;;;;;5044466;28;20330;-75
2023/10/31 10:39:42;;;;;;;10.13;1.90;;;20.20;96.70;;;;;;5044633;28;20530;-75
2023/10/31 10:42:16;;;;;;;9.45;1.60;;;20.10;96.70;;;;;;5043151;28;20063;-75
2023/10/31 10:44:47;;;;;;;13.05;2.28;;;20.20;96.70;;;;;;5050598;28;20452;-75
2023/10/31 10:47:18;;;;;;;12.00;1.85;;;20.20;96.70;;;;;;5055661;28;20670;-78
2023/10/31 10:49:54;;;;;;;6.60;1.65;;;20.20;96.70;;;;;;5057167;28;20037;-77
2023/10/31 10:52:27;;;;;;;10.43;1.90;;;20.10;96.70;;;;;;5042488;28;20126;-76
2023/10/31 10:55:06;;;;;;;12.32;2.08;;;20.20;96.70;;;;;;5043185;28;20414;-79
2023/10/31 10:57:47;;;;;;;10.27;1.67;;;20.10;96.70;;;;;;5044758;28;20044;-81
2023/10/31 11:00:16;;;;;;;11.40;2.28;;;20.30;96.70;;;;;;5050098;28;20049;-77
2023/10/31 11:02:45;;;;;;;9.25;1.92;;;20.50;96.70;;;;;;5060123;28;20155;-75
2023/10/31 11:05:15;;;;;;;9.32;1.52;;;20.60;96.70;;;;;;5062888;28;20472;-77
2023/10/31 11:07:45;;;;;;;9.00;1.65;;;20.60;96.70;;;;;;5048433;28;20037;-77
2023/10/31 11:10:15;;;;;;;9.15;1.65;;;20.60;96.70;;;;;;5057130;28;20071;-77
2023/10/31 11:12:45;;;;;;;11.20;2.40;;;20.60;96.70;;;;;;5067916;28;20618;-77
2023/10/31 11:15:16;;;;;;;11.05;1.77;;;20.40;96.70;;;;;;5065990;28;20478;-77
2023/10/31 11:17:45;;;;;;;10.88;2.03;;;20.30;96.70;;;;;;5060878;28;20041;-77
2023/10/31 11:20:16;;;;;;;11.85;2.15;;;20.30;96.70;;;;;;5057273;28;20072;-76
2023/10/31 11:22:46;;;;;;;14.40;1.88;;;20.40;96.70;;;;;;5062948;28;20037;-77
2023/10/31 11:25:19;;;;;;;14.05;1.85;;;20.40;96.70;;;;;;5047843;28;20073;-77
2023/10/31 11:28:12;;;;;;;9.52;2.00;;;20.30;96.70;;;;;;5037681;28;20057;-77
2023/10/31 11:30:44;;;;;;;10.80;1.88;;;20.20;96.70;;;;;;5061957;28;20052;-77
2023/10/31 11:33:14;;;;;;;10.88;2.40;;;20.40;96.70;;;;;;5066147;28;20044;-77
2023/10/31 11:35:46;;;;;;;8.57;1.65;;;20.70;96.70;;;;;;5042979;28;20047;-77
2023/10/31 11:38:14;;;;;;;9.88;1.50;;;20.90;96.70;;;;;;5058531;28;20040;-77
2023/10/31 11:41:02;;;;;;;8.60;1.52;;;21.00;96.70;;;;;;5064355;28;20409;-76
2023/10/31 11:43:52;;;;;;;13.65;2.10;;;20.90;96.70;;;;;;5064848;28;20060;-77
2023/10/31 11:46:24;;;;;;;10.57;1.83;;;20.70;96.70;;;;;;5064254;28;20083;-76
2023/10/31 11:48:57;;;;;;;12.27;2.17;;;21.00;96.70;;;;;;5065679;28;20076;-78
2023/10/31 11:51:26;;;;;;;10.40;1.50;;;21.20;96.70;;;;;;5047066;28;20051;-77
2023/10/31 11:53:56;;;;;;;9.90;1.88;;;21.00;96.70;;;;;;5062530;28;20533;-78
2023/10/31 11:56:25;;;;;;;11.90;2.42;;;21.10;96.70;;;;;;5045214;28;20474;-76
2023/10/31 11:59:00;;;;;;;8.90;2.13;;;21.00;96.70;;;;;;5044932;28;20066;-77
2023/10/31 12:01:29;;;;;;;5.40;1.35;;;21.10;96.70;;;;;;5045266;28;20093;-77
2023/10/31 12:03:57;;;;;;;10.18;2.35;;;20.90;96.70;;;;;;5046209;28;20486;-77
2023/10/31 12:06:26;;;;;;;9.15;1.40;;;20.50;96.70;;;;;;5044546;28;20103;-77
2023/10/31 12:09:00;;;;;;;9.77;1.90;;;20.40;96.70;;;;;;5045913;28;20402;-77
2023/10/31 12:11:28;;;;;;;8.30;1.92;;;20.50;96.70;;;;;;5048958;28;20040;-76
2023/10/31 12:14:21;;;;;;;14.35;2.65;;;20.80;96.70;;;;;;5064808;28;20133;-77
2023/10/31 12:16:49;;;;;;;11.98;2.10;;;20.90;96.70;;;;;;4977208;28;1533363;-77
2023/10/31 12:19:33;;;;;;;10.00;1.80;;;20.90;96.70;;;;;;5048356;28;20052;-77
2023/10/31 12:22:02;;;;;;;8.95;2.15;;;21.00;96.70;;;;;;5049445;28;20107;-77
2023/10/31 12:24:31;;;;;;;8.93;1.80;;;20.70;96.70;;;;;;5053433;28;20041;-77
2023/10/31 12:27:01;;;;;;;6.45;1.30;;;20.40;96.70;;;;;;5045809;28;20064;-77
2023/10/31 12:29:31;;;;;;;8.82;1.85;;;20.20;96.70;;;;;;5029337;28;20053;-77
2023/10/31 12:31:59;;;;;;;7.10;1.48;;;20.20;96.70;;;;;;5047044;28;20577;-77
2023/10/31 12:34:27;;;;;;;11.32;1.85;;;20.20;96.70;;;;;;5049533;28;20040;-76
2023/10/31 12:36:58;;;;;;;10.43;2.05;;;20.50;96.70;;;;;;5029122;28;20072;-76
2023/10/31 12:39:27;;;;;;;9.88;1.40;;;20.60;96.70;;;;;;5044546;28;20055;-75
2023/10/31 12:41:57;;;;;;;7.88;1.40;;;20.60;96.70;;;;;;5045305;28;20563;-76
2023/10/31 12:44:27;;;;;;;7.32;1.60;;;20.70;96.70;;;;;;5030291;28;20402;-76
2023/10/31 12:46:59;;;;;;;8.90;1.33;;;20.80;96.70;;;;;;5051058;28;20612;-76
2023/10/31 12:49:28;;;;;;;6.68;1.30;;;20.40;96.70;;;;;;5028559;28;20096;-76
2023/10/31 12:51:57;;;;;;;6.28;1.35;;;20.10;96.70;;;;;;5064630;28;20525;-77
2023/10/31 12:54:30;;;;;;;9.43;1.52;;;19.90;96.70;;;;;;5047359;28;20742;-77